Time;durP1;ratioP1;P1;durP2;ratioP2;P2;SDS_P1;SDS_P2;PMS_P1;PMS_P2;Temp;Humidity;BMP_temperature;BMP_pressure;BME280_temperature;BME280_humidity;BME280_pressure;Samples;Min_cycle;Max_cycle;Signal;HPM_P1;HPM_P2
2022/07/09 00:01:38;;;;;;;14.18;6.82;;;16.80;99.90;;;;;;5063689;28;20037;-70
2022/07/09 00:04:04;;;;;;;13.20;6.80;;;16.80;99.90;;;;;;5079879;28;20124;-70
2022/07/09 00:06:31;;;;;;;13.70;6.78;;;16.70;99.90;;;;;;5077815;28;20048;-70
2022/07/09 00:08:57;;;;;;;18.23;7.93;;;16.70;99.90;;;;;;5078046;28;20072;-70
2022/07/09 00:11:23;;;;;;;13.32;6.60;;;16.60;99.90;;;;;;5054304;28;20448;-70
2022/07/09 00:13:49;;;;;;;13.65;7.38;;;16.50;99.90;;;;;;5058862;28;20040;-70
2022/07/09 00:16:14;;;;;;;14.43;6.93;;;16.40;99.90;;;;;;5077142;28;20056;-70
2022/07/09 00:18:40;;;;;;;13.25;6.80;;;16.40;99.90;;;;;;5060089;28;20086;-70
2022/07/09 00:21:06;;;;;;;13.13;7.57;;;16.40;99.90;;;;;;5067828;28;20056;-69
2022/07/09 00:23:32;;;;;;;14.10;7.28;;;16.50;99.90;;;;;;5058259;28;20072;-70
2022/07/09 00:25:57;;;;;;;12.88;6.97;;;16.40;99.90;;;;;;5066448;28;20051;-69
2022/07/09 00:28:23;;;;;;;16.33;7.53;;;16.40;99.90;;;;;;5080483;28;20044;-70
2022/07/09 00:30:49;;;;;;;19.25;7.40;;;16.40;99.90;;;;;;5062939;28;20127;-70
2022/07/09 00:33:14;;;;;;;15.07;7.65;;;16.40;99.90;;;;;;5066977;28;20040;-69
2022/07/09 00:35:40;;;;;;;14.10;7.60;;;16.40;99.90;;;;;;5067001;28;20036;-69
2022/07/09 00:38:06;;;;;;;17.60;7.95;;;16.30;99.90;;;;;;5066532;28;20079;-69
2022/07/09 00:40:31;;;;;;;19.33;8.70;;;16.20;99.90;;;;;;5084729;28;20039;-70
2022/07/09 00:42:57;;;;;;;16.38;8.02;;;16.20;99.90;;;;;;5066430;28;20573;-70
2022/07/09 00:45:23;;;;;;;16.50;8.90;;;16.10;99.90;;;;;;5063578;28;20170;-70
2022/07/09 00:47:48;;;;;;;16.58;8.10;;;16.00;99.90;;;;;;5083706;28;20044;-70
2022/07/09 00:50:14;;;;;;;20.55;8.55;;;16.00;99.90;;;;;;5080230;28;20051;-69
2022/07/09 00:52:41;;;;;;;16.52;8.73;;;15.90;99.90;;;;;;5080097;28;20051;-69
2022/07/09 00:55:08;;;;;;;16.48;8.93;;;16.00;99.90;;;;;;5065089;28;20048;-69
2022/07/09 00:57:35;;;;;;;17.58;8.88;;;15.80;99.90;;;;;;5062996;28;20055;-69
2022/07/09 01:00:01;;;;;;;17.73;9.05;;;15.90;99.90;;;;;;5066289;28;20047;-69
2022/07/09 01:02:27;;;;;;;15.20;8.98;;;15.80;99.90;;;;;;5066731;28;20049;-69
2022/07/09 01:04:53;;;;;;;14.68;8.95;;;15.90;99.90;;;;;;5065800;28;20048;-69
2022/07/09 01:07:18;;;;;;;15.15;9.98;;;15.90;99.90;;;;;;5079718;28;20599;-69
2022/07/09 01:09:44;;;;;;;16.15;9.40;;;15.90;99.90;;;;;;5082492;28;20047;-69
2022/07/09 01:12:10;;;;;;;14.63;8.70;;;15.90;99.90;;;;;;5081741;28;20040;-70
2022/07/09 01:14:35;;;;;;;17.70;9.52;;;16.00;99.90;;;;;;5065708;28;20099;-70
2022/07/09 01:17:04;;;;;;;14.15;8.52;;;16.00;99.90;;;;;;5066719;28;20049;-69
2022/07/09 01:19:31;;;;;;;15.88;8.70;;;15.90;99.90;;;;;;5060881;28;20033;-69
2022/07/09 01:21:58;;;;;;;18.17;8.38;;;15.90;99.90;;;;;;5084440;28;20052;-69
2022/07/09 01:24:24;;;;;;;17.30;8.68;;;15.90;99.90;;;;;;5054808;28;20045;-69
2022/07/09 01:26:52;;;;;;;17.05;8.63;;;15.90;99.90;;;;;;5045970;28;20095;-69
2022/07/09 01:29:18;;;;;;;14.70;8.63;;;15.80;99.90;;;;;;5044598;28;20064;-69
2022/07/09 01:31:44;;;;;;;17.02;8.75;;;15.80;99.90;;;;;;5045468;28;20049;-70
2022/07/09 01:34:10;;;;;;;14.63;8.95;;;15.70;99.90;;;;;;5046151;28;20053;-70
2022/07/09 01:36:35;;;;;;;19.67;9.13;;;15.70;99.90;;;;;;5063083;28;20064;-69
2022/07/09 01:39:01;;;;;;;16.23;9.50;;;15.80;99.90;;;;;;5049627;28;20058;-69
2022/07/09 01:41:27;;;;;;;18.98;9.65;;;15.80;99.90;;;;;;5049375;28;20132;-69
2022/07/09 01:43:52;;;;;;;18.23;9.05;;;15.80;99.90;;;;;;5042266;28;20397;-69
2022/07/09 01:46:18;;;;;;;18.30;9.60;;;15.80;99.90;;;;;;5045330;28;20420;-69
2022/07/09 01:48:44;;;;;;;18.58;8.60;;;15.80;99.90;;;;;;5049165;28;20037;-69
2022/07/09 01:51:11;;;;;;;16.67;9.60;;;15.90;99.90;;;;;;5051888;28;20101;-69
2022/07/09 01:53:37;;;;;;;16.55;9.88;;;15.90;99.90;;;;;;5050772;28;20037;-69
2022/07/09 01:56:07;;;;;;;14.90;9.80;;;15.90;99.90;;;;;;5047629;28;20207;-69
2022/07/09 01:58:34;;;;;;;17.83;9.70;;;15.90;99.90;;;;;;5058139;28;20453;-70
2022/07/09 02:00:59;;;;;;;17.60;9.88;;;16.00;99.90;;;;;;5066350;28;20619;-69
2022/07/09 02:03:25;;;;;;;21.35;9.93;;;16.00;99.90;;;;;;5046879;28;20049;-69
2022/07/09 02:05:51;;;;;;;20.20;9.95;;;16.00;99.90;;;;;;5066108;28;20047;-69
2022/07/09 02:08:16;;;;;;;17.48;9.75;;;15.90;99.90;;;;;;5049950;28;20044;-69
2022/07/09 02:10:42;;;;;;;11.95;9.43;;;16.00;99.90;;;;;;5042481;28;20055;-69
2022/07/09 02:13:08;;;;;;;19.67;10.07;;;16.10;99.90;;;;;;5047964;28;20036;-69
2022/07/09 02:15:34;;;;;;;19.90;10.27;;;16.20;99.90;;;;;;5049078;28;20506;-69
2022/07/09 02:18:00;;;;;;;23.95;10.57;;;16.20;99.90;;;;;;5066684;28;20041;-69
2022/07/09 02:20:26;;;;;;;13.93;9.98;;;16.20;99.90;;;;;;5046598;28;20505;-69
2022/07/09 02:22:52;;;;;;;17.63;10.43;;;16.30;99.90;;;;;;5065316;28;20052;-69
2022/07/09 02:25:18;;;;;;;17.60;9.18;;;16.30;99.90;;;;;;5071439;28;20091;-69
2022/07/09 02:27:44;;;;;;;19.20;10.60;;;16.40;99.90;;;;;;5069146;28;20052;-69
2022/07/09 02:30:10;;;;;;;17.52;10.20;;;16.40;99.90;;;;;;5056087;28;20058;-69
2022/07/09 02:32:38;;;;;;;17.45;10.93;;;16.30;99.90;;;;;;5065884;28;20051;-69
2022/07/09 02:35:04;;;;;;;19.15;12.10;;;16.30;99.90;;;;;;5057889;28;20053;-69
2022/07/09 02:37:30;;;;;;;20.48;11.52;;;16.20;99.90;;;;;;5062619;28;20072;-69
2022/07/09 02:39:55;;;;;;;18.77;11.82;;;16.10;99.90;;;;;;5061979;28;20441;-69
2022/07/09 02:42:21;;;;;;;20.75;12.00;;;16.10;99.90;;;;;;5069362;28;20050;-69
2022/07/09 02:44:47;;;;;;;22.65;12.10;;;16.00;99.90;;;;;;5066675;28;20041;-69
2022/07/09 02:47:12;;;;;;;21.35;12.48;;;16.00;99.90;;;;;;5060073;28;20041;-69
2022/07/09 02:49:38;;;;;;;19.67;12.48;;;16.00;99.90;;;;;;5064486;28;20037;-69
2022/07/09 02:52:04;;;;;;;19.65;11.20;;;16.00;99.90;;;;;;5055274;28;20044;-69
2022/07/09 02:54:30;;;;;;;19.65;11.65;;;16.00;99.90;;;;;;5076519;28;20504;-69
2022/07/09 02:56:55;;;;;;;19.20;11.07;;;16.00;99.90;;;;;;5063163;28;20060;-69
2022/07/09 02:59:21;;;;;;;20.15;11.88;;;16.00;99.90;;;;;;5058858;28;20067;-69
2022/07/09 03:01:47;;;;;;;23.00;11.48;;;16.10;99.90;;;;;;5044874;28;20049;-69
2022/07/09 03:04:13;;;;;;;20.40;11.60;;;16.10;99.90;;;;;;5069407;28;20048;-69
2022/07/09 03:06:38;;;;;;;24.77;13.30;;;16.00;99.90;;;;;;5062757;28;20053;-69
2022/07/09 03:09:04;;;;;;;22.10;13.90;;;16.00;99.90;;;;;;5070567;28;20084;-69
2022/07/09 03:11:30;;;;;;;21.17;11.82;;;16.10;99.90;;;;;;5091904;28;20055;-69
2022/07/09 03:13:56;;;;;;;22.02;11.73;;;16.10;99.90;;;;;;5055535;28;20053;-69
2022/07/09 03:16:21;;;;;;;21.88;12.50;;;16.10;99.90;;;;;;5067895;28;20067;-69
2022/07/09 03:18:47;;;;;;;23.05;11.90;;;16.10;99.90;;;;;;5063031;28;20553;-69
2022/07/09 03:21:13;;;;;;;17.75;10.80;;;16.10;99.90;;;;;;5065183;28;20397;-69
2022/07/09 03:23:41;;;;;;;18.70;11.13;;;16.10;99.90;;;;;;5061487;28;20044;-69
2022/07/09 03:26:07;;;;;;;19.27;11.70;;;16.00;99.90;;;;;;5056854;28;20088;-69
2022/07/09 03:28:34;;;;;;;21.17;11.35;;;16.10;99.90;;;;;;5062846;28;20049;-69
2022/07/09 03:31:00;;;;;;;23.70;10.55;;;16.10;99.90;;;;;;5045167;28;20133;-69
2022/07/09 03:33:26;;;;;;;21.48;11.20;;;16.00;99.90;;;;;;5063091;28;20092;-69
2022/07/09 03:35:55;;;;;;;23.48;10.68;;;16.10;99.90;;;;;;5044563;28;20056;-69
2022/07/09 03:38:21;;;;;;;21.47;10.53;;;16.00;99.90;;;;;;5043399;28;20049;-69
2022/07/09 03:40:46;;;;;;;18.45;9.95;;;16.00;99.90;;;;;;5043902;28;20057;-70
2022/07/09 03:43:12;;;;;;;18.98;9.13;;;16.00;99.90;;;;;;5065217;28;20048;-69
2022/07/09 03:45:38;;;;;;;15.95;9.10;;;15.90;99.90;;;;;;5046237;28;20045;-69
2022/07/09 03:48:04;;;;;;;17.88;8.68;;;15.90;99.90;;;;;;5043559;28;20056;-69
2022/07/09 03:50:29;;;;;;;19.45;9.35;;;15.80;99.90;;;;;;5040408;28;20049;-69
2022/07/09 03:52:55;;;;;;;16.02;8.70;;;15.90;99.90;;;;;;5044743;28;20053;-69
2022/07/09 03:55:21;;;;;;;15.88;8.63;;;15.90;99.90;;;;;;5044168;28;20041;-70
2022/07/09 03:57:46;;;;;;;13.75;8.57;;;16.00;99.90;;;;;;5030521;28;20053;-69
2022/07/09 04:00:12;;;;;;;17.80;9.18;;;16.00;99.90;;;;;;5041032;28;20052;-69
2022/07/09 04:02:39;;;;;;;15.10;8.10;;;15.90;99.90;;;;;;5043523;28;20080;-69
2022/07/09 04:05:05;;;;;;;19.02;8.57;;;16.00;99.90;;;;;;5038045;28;20050;-69
2022/07/09 04:07:31;;;;;;;18.60;8.57;;;15.90;99.90;;;;;;5045005;28;20101;-69
2022/07/09 04:09:56;;;;;;;16.70;8.68;;;15.90;99.90;;;;;;5043554;28;20041;-69
2022/07/09 04:12:22;;;;;;;16.83;8.73;;;16.00;99.90;;;;;;5043906;28;20080;-69
2022/07/09 04:14:48;;;;;;;14.85;8.43;;;16.00;99.90;;;;;;5043963;28;20049;-69
2022/07/09 04:17:14;;;;;;;16.65;8.98;;;16.00;99.90;;;;;;5043110;28;20506;-69
2022/07/09 04:19:39;;;;;;;16.63;8.57;;;16.00;99.90;;;;;;5039355;28;20046;-69
2022/07/09 04:22:05;;;;;;;17.45;8.60;;;16.10;99.90;;;;;;5038112;28;20072;-69
2022/07/09 04:24:31;;;;;;;17.33;8.80;;;16.10;99.90;;;;;;5065211;28;20078;-69
2022/07/09 04:26:56;;;;;;;15.00;6.88;;;16.10;99.90;;;;;;5063622;28;20067;-69
2022/07/09 04:29:22;;;;;;;15.77;8.88;;;16.10;99.90;;;;;;5058988;28;20045;-69
2022/07/09 04:31:48;;;;;;;12.60;7.78;;;16.10;99.90;;;;;;5063666;28;20066;-69
2022/07/09 04:34:14;;;;;;;15.57;8.75;;;16.10;99.90;;;;;;5063643;28;20108;-69
2022/07/09 04:36:39;;;;;;;16.02;7.63;;;16.10;99.90;;;;;;5062099;28;20053;-69
2022/07/09 04:39:05;;;;;;;16.35;7.70;;;16.10;99.90;;;;;;5053060;28;20053;-69
2022/07/09 04:41:31;;;;;;;14.23;7.18;;;16.20;99.90;;;;;;5059085;28;20049;-69
2022/07/09 04:43:57;;;;;;;14.82;7.93;;;16.20;99.90;;;;;;5067455;28;20056;-69
2022/07/09 04:46:22;;;;;;;12.50;6.97;;;16.20;99.90;;;;;;5056923;28;20063;-69
2022/07/09 04:48:48;;;;;;;11.82;7.05;;;16.20;99.90;;;;;;5061750;28;20128;-69
2022/07/09 04:51:14;;;;;;;16.83;7.95;;;16.30;99.90;;;;;;5063608;28;20041;-69
2022/07/09 04:53:40;;;;;;;12.05;6.93;;;16.30;99.90;;;;;;5070074;28;20044;-69
2022/07/09 04:56:06;;;;;;;13.68;6.72;;;16.30;99.90;;;;;;5062384;28;20056;-69
2022/07/09 04:58:32;;;;;;;11.10;6.28;;;16.30;99.90;;;;;;5061971;28;20080;-69
2022/07/09 05:00:58;;;;;;;11.35;7.22;;;16.40;99.90;;;;;;5054274;28;20116;-69
2022/07/09 05:03:25;;;;;;;12.70;6.47;;;16.40;99.90;;;;;;5062908;28;20099;-69
2022/07/09 05:05:51;;;;;;;14.75;7.05;;;16.50;99.90;;;;;;5053955;28;20049;-69
2022/07/09 05:08:18;;;;;;;12.90;6.78;;;16.50;99.90;;;;;;5043777;28;20045;-69
2022/07/09 05:10:44;;;;;;;15.23;7.68;;;16.50;99.90;;;;;;5066424;28;20056;-70
2022/07/09 05:13:10;;;;;;;14.80;7.57;;;16.50;99.90;;;;;;5065020;28;20144;-69
2022/07/09 05:15:36;;;;;;;14.55;7.47;;;16.50;99.90;;;;;;5060110;28;20240;-69
2022/07/09 05:18:01;;;;;;;14.23;7.10;;;16.50;99.90;;;;;;5057971;28;20041;-69
2022/07/09 05:20:27;;;;;;;14.18;7.00;;;16.60;99.90;;;;;;5049665;28;20037;-69
2022/07/09 05:22:53;;;;;;;13.43;7.38;;;16.70;99.90;;;;;;5066078;28;20513;-69
2022/07/09 05:25:19;;;;;;;15.77;7.90;;;16.60;99.90;;;;;;5062270;28;20057;-70
2022/07/09 05:27:46;;;;;;;18.08;8.73;;;16.70;99.90;;;;;;5067491;28;20103;-69
2022/07/09 05:30:14;;;;;;;14.00;7.97;;;16.70;99.90;;;;;;5067398;28;20170;-69
2022/07/09 05:32:41;;;;;;;16.60;8.18;;;16.80;99.90;;;;;;5066970;28;20084;-70
2022/07/09 05:35:07;;;;;;;15.00;7.60;;;16.80;99.90;;;;;;5082186;28;20044;-70
2022/07/09 05:37:33;;;;;;;12.45;7.70;;;16.80;99.90;;;;;;5065752;28;20083;-69
2022/07/09 05:40:00;;;;;;;14.88;7.93;;;16.80;99.90;;;;;;5050656;28;20044;-69
2022/07/09 05:42:25;;;;;;;13.68;8.15;;;16.90;99.90;;;;;;5083972;28;20048;-69
2022/07/09 05:44:51;;;;;;;14.70;7.78;;;17.00;99.90;;;;;;5064754;28;20159;-69
2022/07/09 05:47:17;;;;;;;11.00;6.70;;;17.10;99.90;;;;;;5062381;28;20055;-69
2022/07/09 05:49:43;;;;;;;16.27;7.55;;;17.10;99.90;;;;;;5065364;28;20064;-69
2022/07/09 05:52:08;;;;;;;13.93;8.15;;;17.10;99.90;;;;;;5042538;28;20560;-69
2022/07/09 05:54:34;;;;;;;12.52;6.95;;;17.10;99.90;;;;;;5052649;28;20401;-69
2022/07/09 05:57:00;;;;;;;16.45;7.60;;;17.20;99.90;;;;;;5060749;28;20107;-69
2022/07/09 05:59:25;;;;;;;17.17;7.22;;;17.30;99.90;;;;;;5045057;28;20037;-69
2022/07/09 06:01:51;;;;;;;12.98;6.57;;;17.30;99.90;;;;;;5057292;28;20041;-69
2022/07/09 06:04:16;;;;;;;14.52;7.10;;;17.30;99.90;;;;;;5048670;28;20389;-69
2022/07/09 06:06:42;;;;;;;13.63;5.93;;;17.30;99.90;;;;;;5052550;28;20461;-69
2022/07/09 06:09:08;;;;;;;11.52;6.72;;;17.40;99.90;;;;;;5069234;28;20041;-69
2022/07/09 06:11:34;;;;;;;10.23;6.40;;;17.40;99.90;;;;;;5057790;28;20047;-69
2022/07/09 06:14:00;;;;;;;10.98;6.07;;;17.40;99.90;;;;;;5054907;28;20057;-69
2022/07/09 06:16:25;;;;;;;9.63;5.72;;;17.40;99.90;;;;;;5064057;28;20044;-69
2022/07/09 06:18:51;;;;;;;12.07;6.30;;;17.40;99.90;;;;;;5064154;28;20037;-69
2022/07/09 06:21:17;;;;;;;12.73;6.40;;;17.40;99.90;;;;;;5064430;28;20055;-69
2022/07/09 06:23:42;;;;;;;13.23;7.00;;;17.40;99.90;;;;;;5060404;28;20515;-69
2022/07/09 06:26:08;;;;;;;16.60;7.28;;;17.40;99.90;;;;;;5063935;28;20266;-69
2022/07/09 06:28:37;;;;;;;11.20;6.53;;;17.50;99.90;;;;;;5054302;28;20064;-69
2022/07/09 06:31:03;;;;;;;14.77;6.35;;;17.50;99.90;;;;;;5068008;28;20049;-69
2022/07/09 06:33:29;;;;;;;16.38;6.50;;;17.50;99.90;;;;;;5069952;28;20049;-69
2022/07/09 06:35:54;;;;;;;13.07;7.13;;;17.40;99.90;;;;;;5068330;28;20055;-69
2022/07/09 06:38:20;;;;;;;12.50;6.03;;;17.60;99.90;;;;;;5086965;28;20068;-69
2022/07/09 06:40:46;;;;;;;8.60;5.80;;;17.60;99.90;;;;;;5066246;28;20178;-69
2022/07/09 06:43:12;;;;;;;10.02;5.68;;;17.60;99.90;;;;;;5073436;28;20102;-69
2022/07/09 06:45:38;;;;;;;14.95;5.93;;;17.60;99.90;;;;;;5067320;28;20041;-74
2022/07/09 06:48:04;;;;;;;10.32;5.63;;;17.60;99.90;;;;;;5049628;28;20037;-70
2022/07/09 06:50:30;;;;;;;14.85;6.10;;;17.70;99.90;;;;;;5066676;28;20101;-68
2022/07/09 06:52:55;;;;;;;10.52;5.63;;;17.80;99.90;;;;;;5067486;28;20037;-68
2022/07/09 06:55:21;;;;;;;10.20;5.93;;;17.80;99.90;;;;;;5085877;28;20044;-67
2022/07/09 06:57:47;;;;;;;9.35;5.38;;;17.70;99.90;;;;;;5067513;28;20032;-67
2022/07/09 07:00:13;;;;;;;8.77;5.72;;;17.90;99.90;;;;;;5066682;28;20045;-68
2022/07/09 07:02:39;;;;;;;10.07;6.00;;;17.80;99.90;;;;;;5067820;28;20071;-69
2022/07/09 07:05:05;;;;;;;10.98;5.43;;;17.80;99.90;;;;;;5067765;28;20135;-68
2022/07/09 07:07:31;;;;;;;10.52;4.78;;;17.90;99.90;;;;;;5085498;28;20051;-68
2022/07/09 07:09:57;;;;;;;12.52;6.28;;;17.90;99.90;;;;;;5085250;28;20033;-68
2022/07/09 07:12:23;;;;;;;12.10;5.72;;;17.90;99.90;;;;;;5064807;28;20562;-68
2022/07/09 07:14:50;;;;;;;7.38;5.10;;;17.90;99.90;;;;;;5083963;28;20036;-66
2022/07/09 07:17:16;;;;;;;11.52;5.28;;;17.90;99.90;;;;;;5066759;28;20096;-67
2022/07/09 07:19:41;;;;;;;11.93;5.13;;;18.00;99.90;;;;;;5050201;28;20071;-67
2022/07/09 07:22:07;;;;;;;8.35;4.57;;;18.00;99.90;;;;;;5066030;28;20056;-68
2022/07/09 07:24:33;;;;;;;10.52;5.60;;;18.00;99.90;;;;;;5047043;28;20053;-67
2022/07/09 07:26:59;;;;;;;10.52;5.32;;;18.00;99.90;;;;;;5016265;28;20056;-69
2022/07/09 07:29:26;;;;;;;8.52;4.70;;;18.00;99.90;;;;;;5014053;28;20053;-67
2022/07/09 07:31:52;;;;;;;10.00;4.28;;;18.00;99.90;;;;;;5024866;28;20304;-67
2022/07/09 07:34:21;;;;;;;8.10;4.78;;;18.00;99.90;;;;;;5007553;28;20057;-67
2022/07/09 07:36:47;;;;;;;;;;;18.00;99.90;;;;;;5031010;28;20103;-66
2022/07/09 07:39:13;;;;;;;9.15;4.60;;;18.10;99.90;;;;;;5039900;28;19917;-66
2022/07/09 07:41:39;;;;;;;8.57;4.70;;;18.00;99.90;;;;;;5040199;28;20051;-67
2022/07/09 07:44:04;;;;;;;9.25;4.15;;;18.00;99.90;;;;;;5029655;28;20044;-67
2022/07/09 07:46:30;;;;;;;8.02;3.95;;;18.10;99.90;;;;;;5035636;28;20191;-68
2022/07/09 07:48:56;;;;;;;12.77;3.95;;;18.20;99.90;;;;;;5009358;28;20080;-67
2022/07/09 07:51:21;;;;;;;9.13;3.55;;;18.30;99.90;;;;;;5021589;28;20041;-67
2022/07/09 07:53:47;;;;;;;6.97;3.63;;;18.20;99.90;;;;;;5010773;28;20121;-66
2022/07/09 07:56:13;;;;;;;10.43;4.35;;;18.40;99.90;;;;;;5028841;28;20144;-66
2022/07/09 07:58:39;;;;;;;6.93;3.17;;;18.50;99.90;;;;;;5018330;28;20073;-66
2022/07/09 08:01:05;;;;;;;7.72;3.35;;;18.70;99.90;;;;;;5035788;28;20048;-72
2022/07/09 08:03:30;;;;;;;8.80;3.38;;;18.80;99.90;;;;;;5018980;28;20104;-70
2022/07/09 08:05:56;;;;;;;7.45;3.45;;;18.90;99.90;;;;;;5017756;28;20513;-68
2022/07/09 08:08:22;;;;;;;9.18;3.97;;;18.90;99.90;;;;;;5047315;28;20337;-70
2022/07/09 08:10:50;;;;;;;10.60;3.53;;;18.80;99.90;;;;;;5013886;28;20053;-69
2022/07/09 08:13:16;;;;;;;7.13;3.58;;;18.60;99.90;;;;;;5041482;28;20044;-70
2022/07/09 08:15:42;;;;;;;6.78;3.53;;;18.60;99.90;;;;;;4993020;28;20052;-69
2022/07/09 08:18:12;;;;;;;6.88;3.53;;;18.60;99.90;;;;;;5039665;28;20041;-70
2022/07/09 08:20:38;;;;;;;5.55;2.92;;;18.70;99.90;;;;;;5013274;28;20104;-66
2022/07/09 08:23:04;;;;;;;6.03;2.78;;;18.80;99.90;;;;;;5039314;28;20045;-70
2022/07/09 08:25:30;;;;;;;4.00;2.80;;;18.80;99.90;;;;;;5019755;28;20044;-68
2022/07/09 08:27:56;;;;;;;4.45;2.75;;;19.00;99.90;;;;;;5055709;28;20048;-66
2022/07/09 08:30:21;;;;;;;7.28;3.50;;;19.10;99.90;;;;;;5046208;28;20571;-65
2022/07/09 08:32:47;;;;;;;7.93;3.15;;;19.10;99.90;;;;;;5071045;28;20051;-65
2022/07/09 08:35:13;;;;;;;6.38;2.80;;;19.10;99.90;;;;;;5036092;28;20128;-65
2022/07/09 08:37:39;;;;;;;6.57;2.80;;;19.10;99.90;;;;;;5045977;28;20068;-66
2022/07/09 08:40:06;;;;;;;5.30;2.92;;;19.20;99.90;;;;;;5027260;28;20079;-65
2022/07/09 08:42:31;;;;;;;9.10;2.90;;;19.30;99.90;;;;;;5062001;28;20044;-66
2022/07/09 08:44:57;;;;;;;6.15;2.80;;;19.40;99.90;;;;;;5031799;28;20084;-66
2022/07/09 08:47:24;;;;;;;4.47;2.30;;;19.40;99.90;;;;;;5041392;28;20041;-66
2022/07/09 08:49:56;;;;;;;6.28;2.80;;;19.40;99.90;;;;;;5030312;28;20049;-64
2022/07/09 08:52:23;;;;;;;5.97;2.47;;;19.50;99.90;;;;;;5042815;28;20041;-66
2022/07/09 08:54:52;;;;;;;5.05;2.17;;;19.60;99.90;;;;;;5030954;28;20103;-65
2022/07/09 08:57:17;;;;;;;4.50;2.53;;;19.70;99.90;;;;;;5039161;28;20040;-65
2022/07/09 08:59:43;;;;;;;6.20;2.50;;;19.90;99.90;;;;;;5029415;28;20064;-65
2022/07/09 09:02:09;;;;;;;4.00;1.92;;;19.90;99.90;;;;;;5037374;28;20072;-65
2022/07/09 09:04:39;;;;;;;5.22;1.92;;;20.00;99.90;;;;;;5028988;28;20075;-65
2022/07/09 09:07:25;;;;;;;;;;;20.10;99.90;;;;;;5037850;28;20308;-63
2022/07/09 09:09:51;;;;;;;3.30;1.65;;;20.10;99.90;;;;;;5028307;28;20353;-65
2022/07/09 09:12:27;;;;;;;4.20;1.83;;;20.30;99.90;;;;;;5035106;28;20056;-65
2022/07/09 09:14:53;;;;;;;3.83;1.83;;;20.30;99.90;;;;;;5032133;28;20057;-65
2022/07/09 09:17:18;;;;;;;3.75;2.00;;;20.30;99.90;;;;;;5037640;28;20111;-65
2022/07/09 09:19:44;;;;;;;3.83;2.20;;;20.20;99.90;;;;;;5029448;28;20083;-65
2022/07/09 09:22:10;;;;;;;6.53;2.35;;;20.20;99.90;;;;;;5052094;28;20053;-66
2022/07/09 09:24:35;;;;;;;5.00;1.73;;;20.20;99.90;;;;;;5009230;28;20776;-63
2022/07/09 09:27:02;;;;;;;3.17;1.95;;;20.30;99.90;;;;;;5030556;28;20056;-67
2022/07/09 09:29:28;;;;;;;3.00;1.85;;;20.40;99.90;;;;;;5052198;28;20057;-64
2022/07/09 09:31:55;;;;;;;5.10;2.03;;;20.40;99.90;;;;;;5056066;28;20194;-64
2022/07/09 09:34:21;;;;;;;3.28;1.92;;;20.40;99.90;;;;;;5011705;28;20507;-65
2022/07/09 09:36:52;;;;;;;5.00;2.20;;;20.30;99.90;;;;;;5065500;28;20076;-67
2022/07/09 09:39:30;;;;;;;3.67;1.80;;;20.20;99.90;;;;;;5062970;28;20049;-65
2022/07/09 09:42:01;;;;;;;6.45;2.15;;;20.10;99.90;;;;;;5075440;28;20044;-64
2022/07/09 09:44:40;;;;;;;5.35;1.95;;;20.10;99.90;;;;;;5066700;28;20131;-64
2022/07/09 09:47:10;;;;;;;2.95;2.13;;;20.20;99.90;;;;;;5056266;28;20044;-63
2022/07/09 09:49:41;;;;;;;;;;;20.20;99.90;;;;;;5031188;28;20337;-65
2022/07/09 09:52:08;;;;;;;4.97;1.50;;;20.30;99.90;;;;;;5060880;28;19920;-64
2022/07/09 09:54:37;;;;;;;8.10;2.22;;;20.40;99.90;;;;;;5048737;28;20288;-63
2022/07/09 09:57:09;;;;;;;6.00;1.65;;;20.50;99.90;;;;;;5042425;28;20091;-63
2022/07/09 09:59:40;;;;;;;4.53;2.10;;;20.70;99.90;;;;;;5070505;28;20059;-62
2022/07/09 10:02:09;;;;;;;5.75;1.73;;;20.80;99.90;;;;;;5062385;28;20040;-63
2022/07/09 10:04:36;;;;;;;5.45;1.80;;;21.00;99.90;;;;;;5048849;28;20688;-62
2022/07/09 10:07:04;;;;;;;4.35;1.30;;;21.00;99.90;;;;;;5071387;28;20710;-63
2022/07/09 10:09:30;;;;;;;3.03;1.48;;;20.80;99.90;;;;;;5030267;28;20352;-63
2022/07/09 10:11:55;;;;;;;4.45;1.63;;;20.70;99.90;;;;;;5061427;28;20064;-63
2022/07/09 10:14:24;;;;;;;4.10;1.70;;;20.60;99.90;;;;;;5022991;28;20061;-62
2022/07/09 10:16:51;;;;;;;3.87;1.70;;;20.70;99.90;;;;;;5062013;28;20052;-62
2022/07/09 10:19:27;;;;;;;4.35;1.73;;;20.60;99.90;;;;;;5069283;28;20044;-63
2022/07/09 10:21:55;;;;;;;5.45;1.67;;;20.60;99.90;;;;;;5064629;28;20079;-61
2022/07/09 10:24:31;;;;;;;3.85;2.13;;;20.70;99.90;;;;;;5048858;28;20125;-62
2022/07/09 10:27:06;;;;;;;7.70;2.03;;;20.90;99.90;;;;;;5034936;28;20406;-63
2022/07/09 10:29:32;;;;;;;4.18;1.80;;;21.10;99.90;;;;;;5031566;28;20124;-62
2022/07/09 10:31:58;;;;;;;3.80;1.92;;;21.00;99.90;;;;;;5041129;28;20048;-62
2022/07/09 10:34:51;;;;;;;6.88;2.10;;;20.90;99.90;;;;;;5049111;28;20037;-61
2022/07/09 10:37:18;;;;;;;11.85;2.65;;;20.90;99.90;;;;;;5040595;28;20106;-61
2022/07/09 10:39:54;;;;;;;7.03;2.13;;;20.90;99.90;;;;;;5031063;28;20056;-64
2022/07/09 10:42:23;;;;;;;4.88;2.00;;;21.20;99.90;;;;;;5033642;28;20072;-62
2022/07/09 10:44:53;;;;;;;4.72;2.13;;;21.20;99.90;;;;;;5030874;28;20057;-63
2022/07/09 10:47:19;;;;;;;5.35;1.65;;;21.30;99.90;;;;;;5058393;28;20083;-63
2022/07/09 10:49:44;;;;;;;6.13;1.77;;;21.50;99.90;;;;;;5049369;28;20044;-62
2022/07/09 10:52:10;;;;;;;8.25;1.63;;;21.40;99.90;;;;;;5040474;28;20045;-62
2022/07/09 10:54:48;;;;;;;5.22;1.92;;;21.40;99.90;;;;;;5031104;28;20056;-62
2022/07/09 10:57:14;;;;;;;8.85;2.03;;;21.50;99.90;;;;;;5021637;28;20143;-62
2022/07/09 10:59:46;;;;;;;6.57;1.52;;;21.60;99.90;;;;;;5049168;28;20524;-62
2022/07/09 11:02:19;;;;;;;8.32;1.90;;;21.40;99.90;;;;;;5055366;28;20052;-62
2022/07/09 11:04:51;;;;;;;7.68;1.65;;;21.40;99.90;;;;;;5048981;28;20056;-63
2022/07/09 11:07:22;;;;;;;6.10;1.75;;;21.50;99.90;;;;;;5016631;28;20059;-64
2022/07/09 11:09:48;;;;;;;6.43;1.60;;;21.60;99.90;;;;;;5031634;28;20557;-63
2022/07/09 11:12:19;;;;;;;5.47;1.83;;;21.70;99.90;;;;;;5049245;28;20044;-63
2022/07/09 11:14:49;;;;;;;5.38;1.70;;;21.90;99.90;;;;;;5048679;28;20057;-63
2022/07/09 11:17:17;;;;;;;7.00;1.95;;;22.10;99.90;;;;;;5041240;28;20048;-63
2022/07/09 11:19:43;;;;;;;4.80;2.25;;;22.00;99.90;;;;;;5045136;28;20052;-62
2022/07/09 11:22:09;;;;;;;8.80;2.58;;;22.00;99.90;;;;;;5059753;28;20341;-64
2022/07/09 11:24:34;;;;;;;7.07;2.28;;;21.80;99.90;;;;;;5054968;28;20057;-65
2022/07/09 11:27:08;;;;;;;7.45;2.10;;;21.60;99.90;;;;;;5036027;28;20045;-63
2022/07/09 11:29:35;;;;;;;5.65;2.45;;;21.30;99.90;;;;;;5042596;28;20083;-64
2022/07/09 11:32:01;;;;;;;12.20;3.03;;;21.20;99.90;;;;;;5060971;28;20036;-64
2022/07/09 11:34:29;;;;;;;6.18;2.03;;;21.10;99.90;;;;;;5032155;28;20076;-64
2022/07/09 11:36:57;;;;;;;8.43;2.40;;;21.30;99.90;;;;;;5059472;28;20044;-65
2022/07/09 11:39:31;;;;;;;8.57;2.65;;;21.40;99.90;;;;;;5047789;28;20040;-63
2022/07/09 11:41:58;;;;;;;11.50;2.45;;;21.30;99.90;;;;;;5056150;28;20487;-63
2022/07/09 11:44:28;;;;;;;8.50;2.25;;;21.40;99.90;;;;;;5067551;28;20033;-65
2022/07/09 11:47:04;;;;;;;5.45;2.60;;;21.30;99.90;;;;;;5059980;28;20074;-64
2022/07/09 11:49:49;;;;;;;9.07;2.20;;;21.30;99.90;;;;;;5067270;28;20170;-64
2022/07/09 11:52:20;;;;;;;10.73;2.63;;;21.40;99.90;;;;;;5077068;28;20452;-64
2022/07/09 11:55:00;;;;;;;8.20;2.22;;;21.30;99.90;;;;;;5061523;28;20052;-65
2022/07/09 11:57:27;;;;;;;7.35;2.50;;;21.40;99.90;;;;;;5073935;28;20059;-65
2022/07/09 11:59:53;;;;;;;12.90;3.20;;;21.40;99.90;;;;;;5066340;28;20048;-64
2022/07/09 12:02:38;;;;;;;5.63;2.25;;;21.60;99.90;;;;;;5076068;28;20049;-64
2022/07/09 12:05:06;;;;;;;7.93;2.00;;;21.80;99.90;;;;;;5060325;28;20044;-64
2022/07/09 12:07:33;;;;;;;6.97;2.05;;;21.90;99.90;;;;;;5041281;28;20044;-65
2022/07/09 12:10:07;;;;;;;8.88;2.33;;;22.00;99.90;;;;;;5032554;28;20052;-65
2022/07/09 12:12:35;;;;;;;11.13;2.08;;;22.20;99.90;;;;;;5076890;28;20041;-65
2022/07/09 12:15:02;;;;;;;7.05;1.75;;;22.20;99.90;;;;;;5048944;28;20384;-65
2022/07/09 12:17:30;;;;;;;4.95;1.60;;;22.00;99.90;;;;;;5057882;28;20492;-65
2022/07/09 12:19:57;;;;;;;7.22;1.60;;;22.00;99.90;;;;;;5067798;28;20441;-64
2022/07/09 12:22:24;;;;;;;4.68;1.67;;;21.90;99.90;;;;;;5041438;28;20052;-64
2022/07/09 12:24:53;;;;;;;5.25;1.23;;;21.90;99.90;;;;;;5029503;28;20158;-65
2022/07/09 12:27:22;;;;;;;8.93;1.58;;;22.00;99.90;;;;;;5038983;28;20140;-63
2022/07/09 12:29:47;;;;;;;4.90;1.38;;;21.90;99.90;;;;;;5065576;28;20071;-65
2022/07/09 12:32:14;;;;;;;5.13;1.48;;;21.90;99.90;;;;;;5074200;28;20364;-65
2022/07/09 12:34:40;;;;;;;7.68;1.67;;;21.90;99.90;;;;;;5042795;28;20071;-65
2022/07/09 12:37:06;;;;;;;5.95;1.25;;;21.90;99.90;;;;;;5065653;28;20045;-64
2022/07/09 12:39:32;;;;;;;4.95;1.27;;;22.00;99.90;;;;;;5074342;28;20047;-65